sensor_id;sensor_type;location;lat;lon;timestamp;pressure;altitude;pressure_sealevel;temperature;humidity
13734;BME280;43298;52.560;13.508;2023-05-14T00:02:01;101449.03;;;11.59;100.00
13734;BME280;43298;52.560;13.508;2023-05-14T00:04:27;101447.41;;;11.56;100.00
13734;BME280;43298;52.560;13.508;2023-05-14T00:06:53;101450.03;;;11.55;100.00
13734;BME280;43298;52.560;13.508;2023-05-14T00:09:19;101451.91;;;11.50;100.00
13734;BME280;43298;52.560;13.508;2023-05-14T00:11:45;101448.53;;;11.48;100.00
13734;BME280;43298;52.560;13.508;2023-05-14T00:14:13;101444.16;;;11.50;100.00
13734;BME280;43298;52.560;13.508;2023-05-14T00:16:39;101448.41;;;11.52;100.00
13734;BME280;43298;52.560;13.508;2023-05-14T00:19:05;101445.00;;;11.50;100.00
13734;BME280;43298;52.560;13.508;2023-05-14T00:21:31;101443.47;;;11.45;100.00
13734;BME280;43298;52.560;13.508;2023-05-14T00:23:57;101442.66;;;11.43;100.00
13734;BME280;43298;52.560;13.508;2023-05-14T00:26:23;101438.44;;;11.40;100.00
13734;BME280;43298;52.560;13.508;2023-05-14T00:28:48;101440.31;;;11.37;100.00
13734;BME280;43298;52.560;13.508;2023-05-14T00:31:14;101438.59;;;11.36;100.00
13734;BME280;43298;52.560;13.508;2023-05-14T00:33:40;101438.59;;;11.36;100.00
13734;BME280;43298;52.560;13.508;2023-05-14T00:36:06;101434.16;;;11.39;100.00
13734;BME280;43298;52.560;13.508;2023-05-14T00:38:32;101434.88;;;11.43;100.00
13734;BME280;43298;52.560;13.508;2023-05-14T00:40:58;101439.09;;;11.47;100.00
13734;BME280;43298;52.560;13.508;2023-05-14T00:43:24;101432.47;;;11.38;100.00
13734;BME280;43298;52.560;13.508;2023-05-14T00:45:52;101431.66;;;11.36;100.00
13734;BME280;43298;52.560;13.508;2023-05-14T00:48:20;101430.03;;;11.34;100.00
13734;BME280;43298;52.560;13.508;2023-05-14T00:50:46;101429.09;;;11.36;100.00
13734;BME280;43298;52.560;13.508;2023-05-14T00:53:14;101425.88;;;11.30;100.00
13734;BME280;43298;52.560;13.508;2023-05-14T00:55:41;101420.19;;;11.19;100.00
13734;BME280;43298;52.560;13.508;2023-05-14T00:58:10;101421.13;;;11.16;100.00
13734;BME280;43298;52.560;13.508;2023-05-14T01:00:38;101419.53;;;11.12;100.00
13734;BME280;43298;52.560;13.508;2023-05-14T01:03:05;101427.47;;;11.08;100.00
13734;BME280;43298;52.560;13.508;2023-05-14T01:09:07;101420.34;;;10.88;100.00
13734;BME280;43298;52.560;13.508;2023-05-14T01:11:54;101429.00;;;10.87;100.00
13734;BME280;43298;52.560;13.508;2023-05-14T01:14:45;101428.34;;;10.81;100.00
13734;BME280;43298;52.560;13.508;2023-05-14T01:17:17;101429.28;;;10.78;100.00
13734;BME280;43298;52.560;13.508;2023-05-14T01:19:47;101433.78;;;10.72;100.00
13734;BME280;43298;52.560;13.508;2023-05-14T01:22:14;101427.13;;;10.65;100.00
13734;BME280;43298;52.560;13.508;2023-05-14T01:24:40;101426.59;;;10.54;100.00
13734;BME280;43298;52.560;13.508;2023-05-14T01:32:44;101434.75;;;10.42;100.00
13734;BME280;43298;52.560;13.508;2023-05-14T01:35:13;101432.25;;;10.39;100.00
13734;BME280;43298;52.560;13.508;2023-05-14T01:37:40;101426.38;;;10.34;100.00
13734;BME280;43298;52.560;13.508;2023-05-14T01:40:07;101424.56;;;10.36;100.00
13734;BME280;43298;52.560;13.508;2023-05-14T01:42:34;101425.56;;;10.32;100.00
13734;BME280;43298;52.560;13.508;2023-05-14T01:45:02;101422.19;;;10.30;100.00
13734;BME280;43298;52.560;13.508;2023-05-14T01:47:28;101418.78;;;10.28;100.00
13734;BME280;43298;52.560;13.508;2023-05-14T01:49:54;101414.47;;;10.28;100.00
13734;BME280;43298;52.560;13.508;2023-05-14T01:52:19;101419.69;;;10.27;100.00
13734;BME280;43298;52.560;13.508;2023-05-14T01:54:47;101418.00;;;10.26;100.00
13734;BME280;43298;52.560;13.508;2023-05-14T01:57:12;101418.00;;;10.26;100.00
13734;BME280;43298;52.560;13.508;2023-05-14T01:59:39;101417.94;;;10.27;100.00
13734;BME280;43298;52.560;13.508;2023-05-14T02:02:05;101415.31;;;10.29;100.00
13734;BME280;43298;52.560;13.508;2023-05-14T02:04:31;101417.72;;;10.35;100.00
13734;BME280;43298;52.560;13.508;2023-05-14T02:06:57;101414.00;;;10.43;100.00
13734;BME280;43298;52.560;13.508;2023-05-14T02:09:23;101408.78;;;10.45;100.00
13734;BME280;43298;52.560;13.508;2023-05-14T02:11:49;101405.97;;;10.52;100.00
13734;BME280;43298;52.560;13.508;2023-05-14T02:14:14;101408.28;;;10.61;100.00
13734;BME280;43298;52.560;13.508;2023-05-14T02:16:40;101404.66;;;10.67;100.00
13734;BME280;43298;52.560;13.508;2023-05-14T02:19:06;101411.31;;;10.74;100.00
13734;BME280;43298;52.560;13.508;2023-05-14T02:21:32;101409.25;;;10.85;100.00
13734;BME280;43298;52.560;13.508;2023-05-14T02:23:58;101398.44;;;10.98;100.00
13734;BME280;43298;52.560;13.508;2023-05-14T02:26:24;101404.56;;;11.22;100.00
13734;BME280;43298;52.560;13.508;2023-05-14T02:28:50;101408.75;;;11.50;100.00
13734;BME280;43298;52.560;13.508;2023-05-14T02:31:15;101404.00;;;11.63;100.00
13734;BME280;43298;52.560;13.508;2023-05-14T02:33:44;101411.88;;;11.84;100.00
13734;BME280;43298;52.560;13.508;2023-05-14T02:36:09;101399.63;;;11.88;100.00
13734;BME280;43298;52.560;13.508;2023-05-14T02:38:35;101403.97;;;11.87;100.00
13734;BME280;43298;52.560;13.508;2023-05-14T02:41:01;101402.28;;;11.86;100.00
13734;BME280;43298;52.560;13.508;2023-05-14T02:43:27;101406.63;;;12.09;100.00
13734;BME280;43298;52.560;13.508;2023-05-14T02:45:53;101406.97;;;12.23;100.00
13734;BME280;43298;52.560;13.508;2023-05-14T02:48:19;101408.03;;;12.18;100.00
13734;BME280;43298;52.560;13.508;2023-05-14T02:50:45;101403.78;;;12.17;100.00
13734;BME280;43298;52.560;13.508;2023-05-14T02:53:11;101405.09;;;12.27;100.00
13734;BME280;43298;52.560;13.508;2023-05-14T02:55:37;101408.84;;;12.41;100.00
13734;BME280;43298;52.560;13.508;2023-05-14T02:58:02;101400.16;;;12.42;100.00
13734;BME280;43298;52.560;13.508;2023-05-14T03:00:28;101399.72;;;12.54;100.00
13734;BME280;43298;52.560;13.508;2023-05-14T03:02:54;101399.38;;;12.62;100.00
13734;BME280;43298;52.560;13.508;2023-05-14T03:05:20;101398.25;;;12.69;100.00
13734;BME280;43298;52.560;13.508;2023-05-14T03:07:46;101403.25;;;12.73;100.00
13734;BME280;43298;52.560;13.508;2023-05-14T03:10:11;101409.78;;;12.83;100.00
13734;BME280;43298;52.560;13.508;2023-05-14T03:12:37;101403.44;;;12.90;100.00
13734;BME280;43298;52.560;13.508;2023-05-14T03:15:03;101411.94;;;12.94;100.00
13734;BME280;43298;52.560;13.508;2023-05-14T03:17:29;101408.34;;;12.96;100.00
13734;BME280;43298;52.560;13.508;2023-05-14T03:19:55;101407.88;;;12.87;100.00
13734;BME280;43298;52.560;13.508;2023-05-14T03:22:21;101411.03;;;12.73;100.00
13734;BME280;43298;52.560;13.508;2023-05-14T03:24:46;101413.53;;;12.76;100.00
13734;BME280;43298;52.560;13.508;2023-05-14T03:27:12;101411.03;;;12.73;100.00
13734;BME280;43298;52.560;13.508;2023-05-14T03:29:38;101414.44;;;12.75;100.00
13734;BME280;43298;52.560;13.508;2023-05-14T03:32:04;101403.91;;;12.78;100.00
13734;BME280;43298;52.560;13.508;2023-05-14T03:34:30;101407.19;;;12.83;100.00
13734;BME280;43298;52.560;13.508;2023-05-14T03:36:56;101404.25;;;12.91;100.00
13734;BME280;43298;52.560;13.508;2023-05-14T03:39:22;101402.09;;;13.02;100.00
13734;BME280;43298;52.560;13.508;2023-05-14T03:41:48;101401.97;;;13.05;100.00
13734;BME280;43298;52.560;13.508;2023-05-14T03:44:14;101399.19;;;13.09;100.00
13734;BME280;43298;52.560;13.508;2023-05-14T03:46:40;101397.47;;;13.10;100.00
13734;BME280;43298;52.560;13.508;2023-05-14T03:49:06;101394.81;;;13.11;100.00
13734;BME280;43298;52.560;13.508;2023-05-14T03:51:33;101396.44;;;13.14;100.00
13734;BME280;43298;52.560;13.508;2023-05-14T03:53:58;101403.28;;;13.15;100.00
13734;BME280;43298;52.560;13.508;2023-05-14T03:56:24;101401.22;;;13.23;100.00
13734;BME280;43298;52.560;13.508;2023-05-14T03:58:51;101394.09;;;13.28;100.00
13734;BME280;43298;52.560;13.508;2023-05-14T04:01:17;101402.34;;;13.37;100.00
13734;BME280;43298;52.560;13.508;2023-05-14T04:03:43;101395.47;;;13.36;100.00
13734;BME280;43298;52.560;13.508;2023-05-14T04:06:09;101395.97;;;13.44;100.00
13734;BME280;43298;52.560;13.508;2023-05-14T04:08:35;101393.31;;;13.46;100.00
13734;BME280;43298;52.560;13.508;2023-05-14T04:11:00;101394.28;;;13.43;100.00
13734;BME280;43298;52.560;13.508;2023-05-14T04:13:26;101389.03;;;13.45;100.00
13734;BME280;43298;52.560;13.508;2023-05-14T04:15:52;101388.50;;;13.37;100.00
13734;BME280;43298;52.560;13.508;2023-05-14T04:18:18;101386.38;;;13.26;100.00
13734;BME280;43298;52.560;13.508;2023-05-14T04:20:43;101387.06;;;13.30;100.00
13734;BME280;43298;52.560;13.508;2023-05-14T04:23:09;101391.44;;;13.29;100.00
13734;BME280;43298;52.560;13.508;2023-05-14T04:25:35;101382.28;;;13.21;100.00
13734;BME280;43298;52.560;13.508;2023-05-14T04:28:01;101390.44;;;13.12;100.00
13734;BME280;43298;52.560;13.508;2023-05-14T04:30:27;101386.88;;;13.14;100.00
13734;BME280;43298;52.560;13.508;2023-05-14T04:32:52;101384.72;;;13.04;100.00
13734;BME280;43298;52.560;13.508;2023-05-14T04:35:19;101388.41;;;12.98;100.00
13734;BME280;43298;52.560;13.508;2023-05-14T04:37:45;101385.00;;;12.96;100.00
13734;BME280;43298;52.560;13.508;2023-05-14T04:40:11;101390.03;;;13.01;100.00
13734;BME280;43298;52.560;13.508;2023-05-14T04:42:37;101381.34;;;13.02;100.00
13734;BME280;43298;52.560;13.508;2023-05-14T04:45:05;101379.97;;;13.13;100.00
13734;BME280;43298;52.560;13.508;2023-05-14T04:47:31;101381.28;;;13.23;100.00
13734;BME280;43298;52.560;13.508;2023-05-14T04:49:57;101379.66;;;13.41;100.00
13734;BME280;43298;52.560;13.508;2023-05-14T04:52:23;101376.72;;;13.68;100.00
13734;BME280;43298;52.560;13.508;2023-05-14T04:54:49;101377.03;;;13.81;100.00
13734;BME280;43298;52.560;13.508;2023-05-14T04:57:15;101376.66;;;13.88;100.00
13734;BME280;43298;52.560;13.508;2023-05-14T04:59:41;101373.72;;;13.96;100.00
13734;BME280;43298;52.560;13.508;2023-05-14T05:02:07;101371.47;;;14.07;100.00
13734;BME280;43298;52.560;13.508;2023-05-14T05:04:33;101373.75;;;14.33;100.00
13734;BME280;43298;52.560;13.508;2023-05-14T05:06:59;101368.75;;;14.47;100.00
13734;BME280;43298;52.560;13.508;2023-05-14T05:09:24;101368.84;;;14.62;100.00
13734;BME280;43298;52.560;13.508;2023-05-14T05:11:50;101360.13;;;14.63;100.00
13734;BME280;43298;52.560;13.508;2023-05-14T05:14:16;101368.25;;;14.57;100.00
13734;BME280;43298;52.560;13.508;2023-05-14T05:16:42;101367.53;;;14.54;100.00
13734;BME280;43298;52.560;13.508;2023-05-14T05:19:08;101367.59;;;14.52;100.00
13734;BME280;43298;52.560;13.508;2023-05-14T05:21:34;101366.31;;;14.61;100.00
13734;BME280;43298;52.560;13.508;2023-05-14T05:24:00;101364.81;;;14.74;100.00
13734;BME280;43298;52.560;13.508;2023-05-14T05:26:26;101365.22;;;14.83;100.00
13734;BME280;43298;52.560;13.508;2023-05-14T05:28:52;101365.44;;;14.96;100.00
13734;BME280;43298;52.560;13.508;2023-05-14T05:31:18;101358.16;;;15.02;100.00
13734;BME280;43298;52.560;13.508;2023-05-14T05:33:44;101362.47;;;15.03;99.32
13734;BME280;43298;52.560;13.508;2023-05-14T05:36:10;101360.63;;;15.05;99.04
13734;BME280;43298;52.560;13.508;2023-05-14T05:38:36;101361.63;;;15.03;100.00
13734;BME280;43298;52.560;13.508;2023-05-14T05:41:02;101354.97;;;14.97;100.00
13734;BME280;43298;52.560;13.508;2023-05-14T05:43:27;101351.75;;;14.92;100.00
13734;BME280;43298;52.560;13.508;2023-05-14T05:45:53;101354.50;;;15.07;100.00
13734;BME280;43298;52.560;13.508;2023-05-14T05:48:19;101359.53;;;15.27;100.00
13734;BME280;43298;52.560;13.508;2023-05-14T05:50:48;101362.84;;;15.47;100.00
13734;BME280;43298;52.560;13.508;2023-05-14T05:53:14;101362.97;;;15.61;99.52
13734;BME280;43298;52.560;13.508;2023-05-14T05:55:43;101365.13;;;15.86;100.00
13734;BME280;43298;52.560;13.508;2023-05-14T05:58:09;101361.94;;;15.96;98.77
13734;BME280;43298;52.560;13.508;2023-05-14T06:00:35;101357.31;;;16.17;98.18
13734;BME280;43298;52.560;13.508;2023-05-14T06:03:04;101350.63;;;16.44;96.80
13734;BME280;43298;52.560;13.508;2023-05-14T06:05:29;101353.72;;;16.50;94.81
13734;BME280;43298;52.560;13.508;2023-05-14T06:07:55;101356.13;;;16.69;93.99
13734;BME280;43298;52.560;13.508;2023-05-14T06:10:21;101352.69;;;16.68;91.05
13734;BME280;43298;52.560;13.508;2023-05-14T06:12:47;101356.63;;;16.75;90.08
13734;BME280;43298;52.560;13.508;2023-05-14T06:15:14;101352.00;;;16.80;91.65
13734;BME280;43298;52.560;13.508;2023-05-14T06:17:40;101350.97;;;16.83;89.60
13734;BME280;43298;52.560;13.508;2023-05-14T06:20:06;101352.66;;;16.84;89.37
13734;BME280;43298;52.560;13.508;2023-05-14T06:22:33;101352.16;;;16.77;87.85
13734;BME280;43298;52.560;13.508;2023-05-14T06:24:59;101350.75;;;16.72;90.01
13734;BME280;43298;52.560;13.508;2023-05-14T06:27:25;101353.44;;;16.70;88.68
13734;BME280;43298;52.560;13.508;2023-05-14T06:29:51;101353.53;;;16.69;88.97
13734;BME280;43298;52.560;13.508;2023-05-14T06:32:17;101352.34;;;16.74;91.22
13734;BME280;43298;52.560;13.508;2023-05-14T06:34:43;101350.56;;;16.75;91.99
13734;BME280;43298;52.560;13.508;2023-05-14T06:37:09;101355.34;;;16.82;90.30
13734;BME280;43298;52.560;13.508;2023-05-14T06:39:36;101353.81;;;16.94;90.66
13734;BME280;43298;52.560;13.508;2023-05-14T06:42:02;101343.91;;;16.85;89.36
13734;BME280;43298;52.560;13.508;2023-05-14T06:44:28;101344.19;;;16.94;89.22
13734;BME280;43298;52.560;13.508;2023-05-14T06:46:54;101351.19;;;16.94;89.53
13734;BME280;43298;52.560;13.508;2023-05-14T06:49:20;101348.56;;;16.94;88.49
13734;BME280;43298;52.560;13.508;2023-05-14T06:51:46;101349.78;;;16.88;88.92
13734;BME280;43298;52.560;13.508;2023-05-14T06:54:11;101352.34;;;17.04;88.34
13734;BME280;43298;52.560;13.508;2023-05-14T06:56:37;101345.25;;;17.06;87.35
13734;BME280;43298;52.560;13.508;2023-05-14T06:59:03;101356.19;;;17.12;88.64
13734;BME280;43298;52.560;13.508;2023-05-14T07:01:29;101357.03;;;17.27;88.55
13734;BME280;43298;52.560;13.508;2023-05-14T07:03:55;101358.94;;;17.25;87.13
13734;BME280;43298;52.560;13.508;2023-05-14T07:06:21;101351.63;;;17.30;88.20
13734;BME280;43298;52.560;13.508;2023-05-14T07:08:47;101348.66;;;17.36;87.95
13734;BME280;43298;52.560;13.508;2023-05-14T07:11:14;101348.34;;;17.56;87.46
13734;BME280;43298;52.560;13.508;2023-05-14T07:13:40;101348.53;;;17.53;87.24
13734;BME280;43298;52.560;13.508;2023-05-14T07:16:07;101344.03;;;17.69;87.22
13734;BME280;43298;52.560;13.508;2023-05-14T07:18:35;101346.66;;;17.83;85.42
13734;BME280;43298;52.560;13.508;2023-05-14T07:21:02;101342.19;;;17.71;85.63
13734;BME280;43298;52.560;13.508;2023-05-14T07:23:31;101348.53;;;17.81;84.51
13734;BME280;43298;52.560;13.508;2023-05-14T07:25:58;101336.66;;;18.30;85.11
13734;BME280;43298;52.560;13.508;2023-05-14T07:28:23;101338.13;;;18.48;83.75
13734;BME280;43298;52.560;13.508;2023-05-14T07:30:49;101338.72;;;18.25;81.06
13734;BME280;43298;52.560;13.508;2023-05-14T07:33:15;101333.53;;;18.52;81.55
13734;BME280;43298;52.560;13.508;2023-05-14T07:35:41;101330.94;;;19.03;82.43
13734;BME280;43298;52.560;13.508;2023-05-14T07:38:07;101333.03;;;19.11;80.47
13734;BME280;43298;52.560;13.508;2023-05-14T07:40:32;101335.63;;;18.98;79.02
13734;BME280;43298;52.560;13.508;2023-05-14T07:42:58;101330.94;;;19.03;78.45
13734;BME280;43298;52.560;13.508;2023-05-14T07:45:24;101323.69;;;19.07;78.64
13734;BME280;43298;52.560;13.508;2023-05-14T07:47:50;101317.03;;;19.53;76.57
13734;BME280;43298;52.560;13.508;2023-05-14T07:50:17;101322.47;;;19.62;77.17
13734;BME280;43298;52.560;13.508;2023-05-14T07:52:44;101318.91;;;19.63;79.95
13734;BME280;43298;52.560;13.508;2023-05-14T07:55:11;101319.09;;;19.73;76.32
13734;BME280;43298;52.560;13.508;2023-05-14T07:57:37;101315.28;;;19.89;78.12
13734;BME280;43298;52.560;13.508;2023-05-14T08:00:04;101313.84;;;19.73;75.23
13734;BME280;43298;52.560;13.508;2023-05-14T08:02:33;101313.88;;;19.60;74.65
13734;BME280;43298;52.560;13.508;2023-05-14T08:04:59;101306.78;;;19.98;72.41
13734;BME280;43298;52.560;13.508;2023-05-14T08:07:25;101310.22;;;20.11;73.21
13734;BME280;43298;52.560;13.508;2023-05-14T08:09:52;101306.75;;;20.11;75.64
13734;BME280;43298;52.560;13.508;2023-05-14T08:12:18;101305.25;;;20.43;72.24
13734;BME280;43298;52.560;13.508;2023-05-14T08:14:44;101303.59;;;20.77;70.43
13734;BME280;43298;52.560;13.508;2023-05-14T08:17:10;101307.47;;;20.84;67.78
13734;BME280;43298;52.560;13.508;2023-05-14T08:19:35;101305.06;;;20.33;66.70
13734;BME280;43298;52.560;13.508;2023-05-14T08:22:01;101301.44;;;20.71;67.02
13734;BME280;43298;52.560;13.508;2023-05-14T08:24:28;101299.63;;;20.71;65.33
13734;BME280;43298;52.560;13.508;2023-05-14T08:26:54;101300.22;;;20.63;64.26
13734;BME280;43298;52.560;13.508;2023-05-14T08:29:20;101293.75;;;20.67;63.28
13734;BME280;43298;52.560;13.508;2023-05-14T08:31:49;101300.34;;;20.97;64.22
13734;BME280;43298;52.560;13.508;2023-05-14T08:34:16;101292.25;;;21.33;64.82
13734;BME280;43298;52.560;13.508;2023-05-14T08:36:41;101285.56;;;21.29;66.34
13734;BME280;43298;52.560;13.508;2023-05-14T08:39:07;101299.66;;;21.17;66.28
13734;BME280;43298;52.560;13.508;2023-05-14T08:41:34;101291.16;;;21.13;67.27
13734;BME280;43298;52.560;13.508;2023-05-14T08:44:13;101292.88;;;21.36;64.12
13734;BME280;43298;52.560;13.508;2023-05-14T08:46:40;101288.19;;;21.40;63.11
13734;BME280;43298;52.560;13.508;2023-05-14T08:49:27;101282.69;;;21.65;64.40
13734;BME280;43298;52.560;13.508;2023-05-14T08:51:58;101282.97;;;21.73;67.21
13734;BME280;43298;52.560;13.508;2023-05-14T08:54:25;101279.94;;;21.22;67.84
13734;BME280;43298;52.560;13.508;2023-05-14T08:56:53;101281.25;;;21.39;64.66
13734;BME280;43298;52.560;13.508;2023-05-14T08:59:19;101280.91;;;21.76;65.05
13734;BME280;43298;52.560;13.508;2023-05-14T09:01:52;101268.53;;;22.10;59.57
13734;BME280;43298;52.560;13.508;2023-05-14T09:04:22;101272.00;;;22.42;61.75
13734;BME280;43298;52.560;13.508;2023-05-14T09:06:51;101271.00;;;22.54;62.10
13734;BME280;43298;52.560;13.508;2023-05-14T09:09:21;101267.31;;;22.56;61.18
13734;BME280;43298;52.560;13.508;2023-05-14T09:11:51;101264.66;;;22.97;59.86
13734;BME280;43298;52.560;13.508;2023-05-14T09:14:19;101264.34;;;22.91;58.40
13734;BME280;43298;52.560;13.508;2023-05-14T09:16:47;101262.03;;;22.97;58.67
13734;BME280;43298;52.560;13.508;2023-05-14T09:19:14;101255.66;;;22.79;59.35
13734;BME280;43298;52.560;13.508;2023-05-14T09:21:44;101250.63;;;22.76;56.53
13734;BME280;43298;52.560;13.508;2023-05-14T09:24:22;101243.59;;;23.27;55.56
13734;BME280;43298;52.560;13.508;2023-05-14T09:26:56;101244.66;;;22.95;54.79
13734;BME280;43298;52.560;13.508;2023-05-14T09:29:29;101236.91;;;23.54;56.12
13734;BME280;43298;52.560;13.508;2023-05-14T09:31:57;101226.88;;;23.97;54.27
13734;BME280;43298;52.560;13.508;2023-05-14T09:34:32;101223.09;;;24.56;54.75
13734;BME280;43298;52.560;13.508;2023-05-14T09:37:03;101216.03;;;24.57;53.48
13734;BME280;43298;52.560;13.508;2023-05-14T09:39:31;101215.63;;;24.23;53.04
13734;BME280;43298;52.560;13.508;2023-05-14T09:41:57;101224.47;;;23.35;53.75
13734;BME280;43298;52.560;13.508;2023-05-14T09:44:24;101221.84;;;23.14;54.21
13734;BME280;43298;52.560;13.508;2023-05-14T09:46:51;101210.41;;;23.04;54.76
13734;BME280;43298;52.560;13.508;2023-05-14T09:49:17;101214.63;;;23.16;53.80
13734;BME280;43298;52.560;13.508;2023-05-14T09:51:43;101204.22;;;23.45;53.98
13734;BME280;43298;52.560;13.508;2023-05-14T09:54:09;101207.97;;;23.43;52.55
13734;BME280;43298;52.560;13.508;2023-05-14T09:56:36;101197.38;;;23.33;53.40
13734;BME280;43298;52.560;13.508;2023-05-14T09:59:03;101195.56;;;24.11;54.68
13734;BME280;43298;52.560;13.508;2023-05-14T10:01:30;101192.41;;;23.59;53.14
13734;BME280;43298;52.560;13.508;2023-05-14T10:03:57;101199.22;;;22.91;54.78
13734;BME280;43298;52.560;13.508;2023-05-14T10:06:28;101188.41;;;23.64;54.23
13734;BME280;43298;52.560;13.508;2023-05-14T10:09:00;101189.78;;;23.68;52.88
13734;BME280;43298;52.560;13.508;2023-05-14T10:11:32;101186.47;;;23.57;52.08
13734;BME280;43298;52.560;13.508;2023-05-14T10:17:04;101181.53;;;23.33;53.29
13734;BME280;43298;52.560;13.508;2023-05-14T10:19:33;101184.25;;;22.51;53.69
13734;BME280;43298;52.560;13.508;2023-05-14T10:22:07;101170.75;;;22.65;53.68
13734;BME280;43298;52.560;13.508;2023-05-14T10:24:36;101166.56;;;22.42;54.25
13734;BME280;43298;52.560;13.508;2023-05-14T10:27:19;101163.50;;;22.57;53.00
13734;BME280;43298;52.560;13.508;2023-05-14T10:29:53;101162.78;;;22.76;52.63
13734;BME280;43298;52.560;13.508;2023-05-14T10:32:22;101151.66;;;23.42;50.28
13734;BME280;43298;52.560;13.508;2023-05-14T10:34:50;101157.00;;;22.91;51.32
13734;BME280;43298;52.560;13.508;2023-05-14T10:37:17;101149.66;;;22.65;52.50
13734;BME280;43298;52.560;13.508;2023-05-14T10:44:54;101144.66;;;22.62;53.75
13734;BME280;43298;52.560;13.508;2023-05-14T10:47:23;101136.72;;;22.82;53.23
13734;BME280;43298;52.560;13.508;2023-05-14T10:50:04;101145.94;;;22.97;53.65
13734;BME280;43298;52.560;13.508;2023-05-14T10:52:33;101141.16;;;22.82;55.59
13734;BME280;43298;52.560;13.508;2023-05-14T10:55:05;101131.94;;;21.94;53.70
13734;BME280;43298;52.560;13.508;2023-05-14T10:57:36;101141.38;;;21.65;55.01
13734;BME280;43298;52.560;13.508;2023-05-14T11:00:03;101135.22;;;21.33;55.48
13734;BME280;43298;52.560;13.508;2023-05-14T11:02:37;101132.09;;;21.39;55.41
13734;BME280;43298;52.560;13.508;2023-05-14T11:07:38;101136.97;;;21.44;56.29
13734;BME280;43298;52.560;13.508;2023-05-14T11:10:07;101137.72;;;21.46;55.96
13734;BME280;43298;52.560;13.508;2023-05-14T11:12:35;101131.16;;;21.29;55.43
13734;BME280;43298;52.560;13.508;2023-05-14T11:15:05;101123.84;;;21.33;55.16
13734;BME280;43298;52.560;13.508;2023-05-14T11:17:31;101120.47;;;21.53;55.26
13734;BME280;43298;52.560;13.508;2023-05-14T11:19:58;101113.06;;;21.89;54.86
13734;BME280;43298;52.560;13.508;2023-05-14T11:22:24;101121.88;;;22.20;55.73
13734;BME280;43298;52.560;13.508;2023-05-14T11:24:50;101116.44;;;22.12;54.24
13734;BME280;43298;52.560;13.508;2023-05-14T11:27:17;101110.81;;;22.26;54.71
13734;BME280;43298;52.560;13.508;2023-05-14T11:29:47;101107.84;;;22.40;54.41
13734;BME280;43298;52.560;13.508;2023-05-14T11:32:14;101107.47;;;22.44;55.84
13734;BME280;43298;52.560;13.508;2023-05-14T11:34:42;101110.31;;;22.11;55.43
13734;BME280;43298;52.560;13.508;2023-05-14T11:37:10;101110.25;;;22.02;56.10
13734;BME280;43298;52.560;13.508;2023-05-14T11:39:38;101101.94;;;21.86;56.32
13734;BME280;43298;52.560;13.508;2023-05-14T11:42:10;101095.50;;;21.79;54.81
13734;BME280;43298;52.560;13.508;2023-05-14T11:44:38;101091.78;;;21.70;55.57
13734;BME280;43298;52.560;13.508;2023-05-14T11:47:04;101097.34;;;21.99;56.91
13734;BME280;43298;52.560;13.508;2023-05-14T11:49:31;101092.25;;;21.86;56.37
13734;BME280;43298;52.560;13.508;2023-05-14T11:52:01;101094.09;;;21.75;56.84
13734;BME280;43298;52.560;13.508;2023-05-14T11:54:28;101090.13;;;21.69;56.42
13734;BME280;43298;52.560;13.508;2023-05-14T11:56:59;101086.06;;;21.34;58.41
13734;BME280;43298;52.560;13.508;2023-05-14T11:59:30;101091.22;;;20.91;65.88
13734;BME280;43298;52.560;13.508;2023-05-14T12:01:57;101079.41;;;20.86;69.78
13734;BME280;43298;52.560;13.508;2023-05-14T12:04:23;101075.81;;;20.76;65.66
13734;BME280;43298;52.560;13.508;2023-05-14T12:06:51;101074.28;;;20.73;66.99
13734;BME280;43298;52.560;13.508;2023-05-14T12:09:21;101070.22;;;20.80;65.56
13734;BME280;43298;52.560;13.508;2023-05-14T12:11:49;101062.66;;;20.87;66.17
13734;BME280;43298;52.560;13.508;2023-05-14T12:14:23;101064.94;;;20.91;62.20
13734;BME280;43298;52.560;13.508;2023-05-14T12:16:49;101057.56;;;21.07;62.15
13734;BME280;43298;52.560;13.508;2023-05-14T12:19:18;101062.88;;;21.28;61.30
13734;BME280;43298;52.560;13.508;2023-05-14T12:21:47;101060.50;;;21.56;60.51
13734;BME280;43298;52.560;13.508;2023-05-14T12:24:17;101060.59;;;21.66;60.61
13734;BME280;43298;52.560;13.508;2023-05-14T12:26:48;101057.69;;;21.80;58.57
13734;BME280;43298;52.560;13.508;2023-05-14T12:29:16;101061.16;;;21.69;58.32
13734;BME280;43298;52.560;13.508;2023-05-14T12:31:46;101055.44;;;22.37;57.52
13734;BME280;43298;52.560;13.508;2023-05-14T12:34:13;101053.22;;;22.72;56.34
13734;BME280;43298;52.560;13.508;2023-05-14T12:36:39;101039.66;;;23.35;54.76
13734;BME280;43298;52.560;13.508;2023-05-14T12:39:05;101036.75;;;24.87;53.41
13734;BME280;43298;52.560;13.508;2023-05-14T12:41:32;101039.81;;;24.83;51.90
13734;BME280;43298;52.560;13.508;2023-05-14T12:44:00;101034.09;;;24.87;50.38
13734;BME280;43298;52.560;13.508;2023-05-14T12:46:27;101026.59;;;24.00;49.92
13734;BME280;43298;52.560;13.508;2023-05-14T12:48:53;101020.66;;;24.35;50.64
13734;BME280;43298;52.560;13.508;2023-05-14T12:51:19;101019.78;;;24.80;48.98
13734;BME280;43298;52.560;13.508;2023-05-14T12:53:46;101020.34;;;24.47;50.49
13734;BME280;43298;52.560;13.508;2023-05-14T12:56:12;101019.47;;;24.10;49.61